createdAt,value
2018-07-04T00:01:29.479Z,14.60
2018-07-04T00:04:16.127Z,14.60
2018-07-04T00:07:02.454Z,14.40
2018-07-04T00:09:48.707Z,14.30
2018-07-04T00:12:35.261Z,14.30
2018-07-04T00:15:21.509Z,14.30
2018-07-04T00:18:07.878Z,14.30
2018-07-04T00:20:54.407Z,14.30
2018-07-04T00:23:40.730Z,14.30
2018-07-04T00:26:27.137Z,14.20
2018-07-04T00:29:13.519Z,14.10
2018-07-04T00:31:59.938Z,14.00
2018-07-04T00:34:46.307Z,14.00
2018-07-04T00:37:32.774Z,13.80
2018-07-04T00:40:19.210Z,13.70
2018-07-04T00:43:05.766Z,13.60
2018-07-04T00:45:52.122Z,13.30
2018-07-04T00:48:38.552Z,13.30
2018-07-04T00:51:24.906Z,13.30
2018-07-04T00:54:11.233Z,13.20
2018-07-04T00:56:57.680Z,13.30
2018-07-04T00:59:44.409Z,13.30
2018-07-04T01:02:30.706Z,13.30
2018-07-04T01:05:17.309Z,13.20
2018-07-04T01:08:03.606Z,13.20
2018-07-04T01:10:50.074Z,13.10
2018-07-04T01:13:36.510Z,13.20
2018-07-04T01:16:23.035Z,13.00
2018-07-04T01:19:09.368Z,12.90
2018-07-04T01:21:55.661Z,12.80
2018-07-04T01:24:42.083Z,12.70
2018-07-04T01:27:28.355Z,12.80
2018-07-04T01:30:14.768Z,12.80
2018-07-04T01:33:01.114Z,13.00
2018-07-04T01:35:47.581Z,13.00
2018-07-04T01:38:34.009Z,13.00
2018-07-04T01:41:20.389Z,13.00
2018-07-04T01:44:06.640Z,13.00
2018-07-04T01:46:52.866Z,12.90
2018-07-04T01:49:39.196Z,12.80
2018-07-04T01:52:25.582Z,12.60
2018-07-04T01:55:12.026Z,12.70
2018-07-04T01:57:58.446Z,12.70
2018-07-04T02:00:44.940Z,12.80
2018-07-04T02:03:31.237Z,12.80
2018-07-04T02:06:17.635Z,12.70
2018-07-04T02:09:04.522Z,12.60
2018-07-04T02:11:50.802Z,12.60
2018-07-04T02:14:37.322Z,12.50
2018-07-04T02:17:23.683Z,12.40
2018-07-04T02:20:09.937Z,12.30
2018-07-04T02:22:56.407Z,12.20
2018-07-04T02:25:42.608Z,12.20
2018-07-04T02:28:28.812Z,12.20
2018-07-04T02:31:15.195Z,12.20
2018-07-04T02:34:01.641Z,12.20
2018-07-04T02:36:48.072Z,12.10
2018-07-04T02:39:34.602Z,12.10
2018-07-04T02:42:20.833Z,12.10
2018-07-04T02:45:07.272Z,12.10
2018-07-04T02:47:53.675Z,12.20
2018-07-04T02:50:40.051Z,12.10
2018-07-04T02:53:26.548Z,12.00
2018-07-04T02:56:12.994Z,11.90
2018-07-04T02:58:59.567Z,11.80
2018-07-04T03:01:45.835Z,12.00
2018-07-04T03:04:32.277Z,11.90
2018-07-04T03:07:18.527Z,11.90
2018-07-04T03:10:04.843Z,11.90
2018-07-04T03:12:51.265Z,11.90
2018-07-04T03:15:37.653Z,11.80
2018-07-04T03:18:24.147Z,11.80
2018-07-04T03:21:10.530Z,11.70
2018-07-04T03:23:57.077Z,11.80
2018-07-04T03:26:43.397Z,11.90
2018-07-04T03:29:29.735Z,11.90
2018-07-04T03:32:16.183Z,11.90
2018-07-04T03:35:03.024Z,11.90
2018-07-04T03:37:49.546Z,11.90
2018-07-04T03:40:35.936Z,12.00
2018-07-04T03:43:22.409Z,12.00
2018-07-04T03:46:08.932Z,12.00
2018-07-04T03:48:55.421Z,12.00
2018-07-04T03:51:41.902Z,12.00
2018-07-04T03:54:28.378Z,12.20
2018-07-04T03:57:14.894Z,12.00
2018-07-04T04:00:01.070Z,11.90
2018-07-04T04:02:47.667Z,12.00
2018-07-04T04:05:34.090Z,11.90
2018-07-04T04:08:20.334Z,11.90
2018-07-04T04:11:06.704Z,12.00
2018-07-04T04:13:53.486Z,12.00
2018-07-04T04:16:39.678Z,12.10
2018-07-04T04:19:31.330Z,12.20
2018-07-04T04:22:17.722Z,12.30
2018-07-04T04:25:03.992Z,12.40
2018-07-04T04:27:50.303Z,12.40
2018-07-04T04:30:36.766Z,12.50
2018-07-04T04:33:23.203Z,12.60
2018-07-04T04:36:09.704Z,12.70
2018-07-04T04:38:55.994Z,12.80
2018-07-04T04:41:42.233Z,12.90
2018-07-04T04:44:28.505Z,12.90
2018-07-04T04:47:14.826Z,13.00
2018-07-04T04:50:01.458Z,13.10
2018-07-04T04:52:47.687Z,13.20
2018-07-04T04:55:34.004Z,13.30
2018-07-04T04:58:20.538Z,13.40
2018-07-04T05:01:06.940Z,13.50
2018-07-04T05:03:53.238Z,13.50
2018-07-04T05:06:39.534Z,13.50
2018-07-04T05:09:25.880Z,13.60
2018-07-04T05:12:12.342Z,13.70
2018-07-04T05:14:58.998Z,13.80
2018-07-04T05:17:45.681Z,13.90
2018-07-04T05:20:31.995Z,14.00
2018-07-04T05:23:18.342Z,14.10
2018-07-04T05:26:05.078Z,14.10
2018-07-04T05:28:51.661Z,14.10
2018-07-04T05:31:38.142Z,14.30
2018-07-04T05:34:24.750Z,14.30
2018-07-04T05:37:10.945Z,14.40
2018-07-04T05:39:57.325Z,14.50
2018-07-04T05:42:43.789Z,14.60
2018-07-04T05:45:30.344Z,14.70
2018-07-04T05:48:16.818Z,14.80
2018-07-04T05:51:03.395Z,14.90
2018-07-04T05:53:49.906Z,15.10
2018-07-04T05:56:36.157Z,15.20
2018-07-04T05:59:22.623Z,15.30
2018-07-04T06:02:09.134Z,15.40
2018-07-04T06:04:55.831Z,15.50
2018-07-04T06:07:42.209Z,15.70
2018-07-04T06:10:28.688Z,15.80
2018-07-04T06:13:15.189Z,15.90
2018-07-04T06:16:01.597Z,16.10
2018-07-04T06:21:28.564Z,16.50
2018-07-04T06:24:14.902Z,16.60
2018-07-04T06:27:01.170Z,16.80
2018-07-04T06:29:47.921Z,16.90
2018-07-04T06:32:34.287Z,17.20
2018-07-04T06:35:20.706Z,17.40
2018-07-04T06:37:54.763Z,17.60
2018-07-04T06:40:22.467Z,18.00
2018-07-04T06:42:50.183Z,18.30
2018-07-04T06:45:17.897Z,18.70
2018-07-04T06:47:45.602Z,18.80
2018-07-04T06:50:13.314Z,18.80
2018-07-04T06:52:41.018Z,19.20
2018-07-04T06:55:08.739Z,19.40
2018-07-04T06:57:36.438Z,19.60
2018-07-04T07:00:04.186Z,19.80
2018-07-04T07:02:31.918Z,20.00
2018-07-04T07:05:12.162Z,20.10
2018-07-04T07:07:58.462Z,20.10
2018-07-04T07:10:45.063Z,20.50
2018-07-04T07:13:31.478Z,20.80
2018-07-04T07:16:17.883Z,21.00
2018-07-04T07:19:04.083Z,21.00
2018-07-04T07:21:50.454Z,21.10
2018-07-04T07:24:36.858Z,21.10
2018-07-04T07:27:23.255Z,21.30
2018-07-04T07:30:09.560Z,21.30
2018-07-04T07:32:56.018Z,21.50
2018-07-04T07:35:42.515Z,21.90
2018-07-04T07:38:29.073Z,22.20
2018-07-04T07:41:15.479Z,22.20
2018-07-04T07:44:01.836Z,22.30
2018-07-04T07:46:48.398Z,22.50
2018-07-04T07:49:34.851Z,22.90
2018-07-04T07:52:21.473Z,23.10
2018-07-04T07:55:07.722Z,23.30
2018-07-04T07:57:54.498Z,23.50
2018-07-04T08:00:40.947Z,23.60
2018-07-04T08:03:27.181Z,23.50
2018-07-04T08:06:13.747Z,23.50
2018-07-04T08:09:00.047Z,23.80
2018-07-04T08:11:46.450Z,23.90
2018-07-04T08:14:32.735Z,24.10
2018-07-04T08:17:19.095Z,24.00
2018-07-04T08:20:05.653Z,24.10
2018-07-04T08:22:52.093Z,24.00
2018-07-04T08:25:38.421Z,24.20
2018-07-04T08:28:24.839Z,24.60
2018-07-04T08:31:11.248Z,25.00
2018-07-04T08:33:57.758Z,25.20
2018-07-04T08:36:44.218Z,25.20
2018-07-04T08:39:30.772Z,25.20
2018-07-04T08:42:17.311Z,25.40
2018-07-04T08:45:03.859Z,25.50
2018-07-04T08:47:50.367Z,25.10
2018-07-04T08:50:36.799Z,25.30
2018-07-04T08:53:23.515Z,24.90
2018-07-04T08:56:09.831Z,24.70
2018-07-04T08:58:56.214Z,25.00
2018-07-04T09:04:22.974Z,25.70
2018-07-04T09:07:09.662Z,26.00
2018-07-04T09:09:56.126Z,26.20
2018-07-04T09:12:42.345Z,26.30
2018-07-04T09:15:28.848Z,26.50
2018-07-04T09:18:15.299Z,26.40
2018-07-04T09:21:01.878Z,26.00
2018-07-04T09:23:48.292Z,26.50
2018-07-04T09:26:34.887Z,26.70
2018-07-04T09:29:21.338Z,26.80
2018-07-04T09:32:08.019Z,26.60
2018-07-04T09:34:54.480Z,26.80
2018-07-04T09:37:40.730Z,27.00
2018-07-04T09:40:27.335Z,27.30
2018-07-04T09:43:13.614Z,27.50
2018-07-04T09:46:00.207Z,27.60
2018-07-04T09:48:46.595Z,27.80
2018-07-04T09:51:32.893Z,27.80
2018-07-04T09:54:19.413Z,27.90
2018-07-04T09:59:46.194Z,28.10
2018-07-04T10:02:32.582Z,28.20
2018-07-04T10:05:19.027Z,28.10
2018-07-04T10:08:05.554Z,28.10
2018-07-04T10:10:52.111Z,27.90
2018-07-04T10:13:39.259Z,28.00
2018-07-04T10:16:25.722Z,28.10
2018-07-04T10:19:12.414Z,28.30
2018-07-04T10:21:58.570Z,28.60
2018-07-04T10:24:45.000Z,28.80
2018-07-04T10:27:31.680Z,29.10
2018-07-04T10:30:18.141Z,29.50
2018-07-04T10:33:04.626Z,29.60
2018-07-04T10:35:51.146Z,30.00
2018-07-04T10:38:38.095Z,30.20
2018-07-04T10:41:24.334Z,29.90
2018-07-04T10:44:10.654Z,29.60
2018-07-04T10:46:56.879Z,29.80
2018-07-04T10:49:43.689Z,30.00
2018-07-04T10:52:30.132Z,30.20
2018-07-04T10:55:16.558Z,30.30
2018-07-04T10:58:02.884Z,30.30
2018-07-04T11:00:49.346Z,30.30
2018-07-04T11:03:35.830Z,30.40
2018-07-04T11:06:22.126Z,30.30
2018-07-04T11:09:08.655Z,30.30
2018-07-04T11:11:55.311Z,30.30
2018-07-04T11:14:41.930Z,30.50
2018-07-04T11:17:28.213Z,30.50
2018-07-04T11:20:14.541Z,30.30
2018-07-04T11:23:01.404Z,30.50
2018-07-04T11:25:47.965Z,30.70
2018-07-04T11:28:34.736Z,30.70
2018-07-04T11:31:21.151Z,30.70
2018-07-04T11:34:07.543Z,30.80
2018-07-04T11:36:54.142Z,30.90
2018-07-04T11:39:42.096Z,30.90
2018-07-04T11:42:28.558Z,30.90
2018-07-04T11:45:14.802Z,31.20
2018-07-04T11:47:48.662Z,30.40
2018-07-04T11:50:16.366Z,30.00
2018-07-04T11:52:44.083Z,29.80
2018-07-04T11:55:11.830Z,29.50
2018-07-04T11:57:39.542Z,29.80
2018-07-04T12:00:08.594Z,29.60
2018-07-04T12:02:36.306Z,29.80
2018-07-04T12:05:16.423Z,29.90
2018-07-04T12:07:50.410Z,30.10
2018-07-04T12:10:18.103Z,30.50
2018-07-04T12:12:45.822Z,30.80
2018-07-04T12:15:13.927Z,30.90
2018-07-04T12:17:41.683Z,30.80
2018-07-04T12:20:09.375Z,30.80
2018-07-04T12:22:37.083Z,30.90
2018-07-04T12:25:04.782Z,31.10
2018-07-04T12:27:32.508Z,31.20
2018-07-04T12:30:00.214Z,31.30
2018-07-04T12:32:29.627Z,31.40
2018-07-04T12:34:57.494Z,31.20
2018-07-04T12:37:25.230Z,31.30
2018-07-04T12:39:52.991Z,31.30
2018-07-04T12:42:20.700Z,31.50
2018-07-04T12:44:48.425Z,31.50
2018-07-04T12:47:16.150Z,31.60
2018-07-04T12:49:43.844Z,31.60
2018-07-04T12:52:11.547Z,31.30
2018-07-04T12:54:45.268Z,30.80
2018-07-04T12:57:25.066Z,30.50
2018-07-04T13:00:11.547Z,30.70
2018-07-04T13:02:58.101Z,30.40
2018-07-04T13:05:44.899Z,30.10
2018-07-04T13:08:31.270Z,30.40
2018-07-04T13:11:17.782Z,30.30
2018-07-04T13:14:04.156Z,30.40
2018-07-04T13:16:50.792Z,30.40
2018-07-04T13:19:37.304Z,30.10
2018-07-04T13:22:23.769Z,30.20
2018-07-04T13:25:10.064Z,30.60
2018-07-04T13:27:56.372Z,31.10
2018-07-04T13:30:42.998Z,31.30
2018-07-04T13:33:29.327Z,31.50
2018-07-04T13:36:15.582Z,31.60
2018-07-04T13:39:02.056Z,31.60
2018-07-04T13:41:48.477Z,31.60
2018-07-04T13:44:34.881Z,31.70
2018-07-04T13:47:21.357Z,31.70
2018-07-04T13:50:08.187Z,31.60
2018-07-04T13:52:54.670Z,31.60
2018-07-04T13:55:41.105Z,31.50
2018-07-04T13:58:27.953Z,31.40
2018-07-04T14:01:15.088Z,31.50
2018-07-04T14:04:01.767Z,31.60
2018-07-04T14:09:28.315Z,31.60
2018-07-04T14:12:14.670Z,31.60
2018-07-04T14:15:01.179Z,31.60
2018-07-04T14:17:47.735Z,31.30
2018-07-04T14:20:34.095Z,31.20
2018-07-04T14:23:20.566Z,31.40
2018-07-04T14:26:07.077Z,31.30
2018-07-04T14:28:53.398Z,31.20
2018-07-04T14:31:39.670Z,31.50
2018-07-04T14:34:26.280Z,31.60
2018-07-04T14:37:12.835Z,31.70
2018-07-04T14:39:59.261Z,31.70
2018-07-04T14:42:45.636Z,31.50
2018-07-04T14:45:32.015Z,31.70
2018-07-04T14:48:18.394Z,31.60
2018-07-04T14:51:04.863Z,31.70
2018-07-04T14:53:51.394Z,31.70
2018-07-04T14:56:37.548Z,31.70
2018-07-04T14:59:24.550Z,31.70
2018-07-04T15:02:10.920Z,31.40
2018-07-04T15:07:37.778Z,31.20
2018-07-04T15:10:24.126Z,31.00
2018-07-04T15:13:10.622Z,30.70
2018-07-04T15:15:57.121Z,30.90
2018-07-04T15:18:43.482Z,31.00
2018-07-04T15:21:30.028Z,30.90
2018-07-04T15:24:16.365Z,30.90
2018-07-04T15:27:02.738Z,30.80
2018-07-04T15:29:49.039Z,30.80
2018-07-04T15:32:35.338Z,30.80
2018-07-04T15:38:02.098Z,30.70
2018-07-04T15:40:48.394Z,30.60
2018-07-04T15:46:15.158Z,30.30
2018-07-04T15:49:01.643Z,30.20
2018-07-04T15:51:48.289Z,30.00
2018-07-04T15:54:34.983Z,30.00
2018-07-04T15:57:21.338Z,30.00
2018-07-04T16:00:07.858Z,30.20
2018-07-04T16:02:54.651Z,30.30
2018-07-04T16:05:41.122Z,30.20
2018-07-04T16:08:27.598Z,30.20
2018-07-04T16:11:14.087Z,30.30
2018-07-04T16:14:00.593Z,30.60
2018-07-04T16:16:46.967Z,30.70
2018-07-04T16:19:33.472Z,30.70
2018-07-04T16:22:19.935Z,30.70
2018-07-04T16:25:06.548Z,30.70
2018-07-04T16:27:52.908Z,30.70
2018-07-04T16:30:39.415Z,30.60
2018-07-04T16:33:25.991Z,30.60
2018-07-04T16:36:12.911Z,30.40
2018-07-04T16:38:59.221Z,30.20
2018-07-04T16:41:45.649Z,30.20
2018-07-04T16:44:32.087Z,30.20
2018-07-04T16:47:18.570Z,30.30
2018-07-04T16:50:04.870Z,30.30
2018-07-04T16:52:51.310Z,30.40
2018-07-04T16:55:37.742Z,30.40
2018-07-04T16:58:24.062Z,30.50
2018-07-04T17:01:10.495Z,30.50
2018-07-04T17:03:56.690Z,30.40
2018-07-04T17:06:42.813Z,30.40
2018-07-04T17:09:29.359Z,30.40
2018-07-04T17:12:15.695Z,30.40
2018-07-04T17:15:02.105Z,30.40
2018-07-04T17:17:48.606Z,30.30
2018-07-04T17:20:34.931Z,30.20
2018-07-04T17:23:21.049Z,30.20
2018-07-04T17:26:07.530Z,30.20
2018-07-04T17:28:53.733Z,30.20
2018-07-04T17:31:40.239Z,30.20
2018-07-04T17:34:26.681Z,30.10
2018-07-04T17:37:13.118Z,30.00
2018-07-04T17:39:59.715Z,29.90
2018-07-04T17:42:46.195Z,29.90
2018-07-04T17:45:32.409Z,29.80
2018-07-04T17:48:18.888Z,29.80
2018-07-04T17:51:05.311Z,29.70
2018-07-04T17:53:51.504Z,29.60
2018-07-04T17:56:37.842Z,29.50
2018-07-04T17:59:24.153Z,29.30
2018-07-04T18:02:10.562Z,29.30
2018-07-04T18:04:57.017Z,29.10
2018-07-04T18:07:43.471Z,29.00
2018-07-04T18:10:29.905Z,28.90
2018-07-04T18:13:16.317Z,28.80
2018-07-04T18:16:02.829Z,28.70
2018-07-04T18:18:49.230Z,28.60
2018-07-04T18:21:35.882Z,28.60
2018-07-04T18:24:22.467Z,28.50
2018-07-04T18:27:08.682Z,28.40
2018-07-04T18:29:55.103Z,28.30
2018-07-04T18:32:41.384Z,28.20
2018-07-04T18:35:27.734Z,28.10
2018-07-04T18:38:14.202Z,28.00
2018-07-04T18:41:00.717Z,28.00
2018-07-04T18:43:47.175Z,27.80
2018-07-04T18:46:34.114Z,27.70
2018-07-04T18:49:20.503Z,27.60
2018-07-04T18:52:06.826Z,27.50
2018-07-04T18:54:53.258Z,27.40
2018-07-04T18:57:39.550Z,27.20
2018-07-04T19:00:25.859Z,27.10
2018-07-04T19:03:12.082Z,27.00
2018-07-04T19:05:58.590Z,26.90
2018-07-04T19:08:45.051Z,26.80
2018-07-04T19:11:31.461Z,26.70
2018-07-04T19:14:17.858Z,26.60
2018-07-04T19:17:04.170Z,26.40
2018-07-04T19:22:30.871Z,26.00
2018-07-04T19:25:17.347Z,25.90
2018-07-04T19:30:43.762Z,25.60
2018-07-04T19:33:30.080Z,25.60
2018-07-04T19:36:16.475Z,25.40
2018-07-04T19:39:03.012Z,25.30
2018-07-04T19:41:49.211Z,25.20
2018-07-04T19:44:35.368Z,25.20
2018-07-04T19:47:21.770Z,25.10
2018-07-04T19:50:08.775Z,24.90
2018-07-04T19:52:55.115Z,24.80
2018-07-04T19:55:41.646Z,24.70
2018-07-04T19:58:28.179Z,24.60
2018-07-04T20:01:14.626Z,24.50
2018-07-04T20:04:01.075Z,24.40
2018-07-04T20:06:47.554Z,24.30
2018-07-04T20:09:34.102Z,24.20
2018-07-04T20:12:21.037Z,24.00
2018-07-04T20:15:07.416Z,23.90
2018-07-04T20:17:53.718Z,23.80
2018-07-04T20:20:40.518Z,23.80
2018-07-04T20:23:26.931Z,23.80
2018-07-04T20:26:13.096Z,23.60
2018-07-04T20:28:59.568Z,23.40
2018-07-04T20:31:46.071Z,23.40
2018-07-04T20:34:32.597Z,23.30
2018-07-04T20:37:19.347Z,23.20
2018-07-04T20:40:05.831Z,23.00
2018-07-04T20:42:52.078Z,23.00
2018-07-04T20:45:38.326Z,22.90
2018-07-04T20:48:24.606Z,22.80
2018-07-04T20:51:10.886Z,22.70
2018-07-04T20:53:57.386Z,22.60
2018-07-04T20:56:43.882Z,22.50
2018-07-04T20:59:30.289Z,22.40
2018-07-04T21:02:16.746Z,22.40
2018-07-04T21:05:03.272Z,22.40
2018-07-04T21:07:49.721Z,22.30
2018-07-04T21:10:36.187Z,22.30
2018-07-04T21:13:22.700Z,22.30
2018-07-04T21:16:09.094Z,22.40
2018-07-04T21:18:55.603Z,22.20
2018-07-04T21:21:42.103Z,22.20
2018-07-04T21:24:28.590Z,22.10
2018-07-04T21:27:15.023Z,22.10
2018-07-04T21:30:01.507Z,22.10
2018-07-04T21:32:47.808Z,22.00
2018-07-04T21:35:34.083Z,22.10
2018-07-04T21:41:00.726Z,21.90
2018-07-04T21:43:47.167Z,21.90
2018-07-04T21:46:33.745Z,21.80
2018-07-04T21:49:20.151Z,21.70
2018-07-04T21:52:06.767Z,21.70
2018-07-04T21:54:53.315Z,21.60
2018-07-04T21:57:39.661Z,21.50
2018-07-04T22:00:25.951Z,21.40
2018-07-04T22:03:12.562Z,21.40
2018-07-04T22:05:59.103Z,21.30
2018-07-04T22:08:45.451Z,21.10
2018-07-04T22:11:31.946Z,21.10
2018-07-04T22:14:18.483Z,21.00
2018-07-04T22:17:05.085Z,21.00
2018-07-04T22:19:51.414Z,20.90
2018-07-04T22:22:37.954Z,20.90
2018-07-04T22:25:24.475Z,20.80
2018-07-04T22:28:10.765Z,20.70
2018-07-04T22:30:57.105Z,20.70
2018-07-04T22:33:43.581Z,20.70
2018-07-04T22:36:30.042Z,20.60
2018-07-04T22:39:16.378Z,20.60
2018-07-04T22:42:02.666Z,20.40
2018-07-04T22:44:49.061Z,20.40
2018-07-04T22:47:35.358Z,20.30
2018-07-04T22:50:21.701Z,20.30
2018-07-04T22:53:08.143Z,20.20
2018-07-04T22:55:54.555Z,20.10
2018-07-04T22:58:40.909Z,20.10
2018-07-04T23:01:27.314Z,20.00
2018-07-04T23:04:13.912Z,20.00
2018-07-04T23:07:00.463Z,20.00
2018-07-04T23:09:46.871Z,19.90
2018-07-04T23:12:33.268Z,19.80
2018-07-04T23:15:19.596Z,19.70
2018-07-04T23:18:06.250Z,19.60
2018-07-04T23:20:52.583Z,19.60
2018-07-04T23:23:38.867Z,19.50
2018-07-04T23:26:25.377Z,19.50
2018-07-04T23:29:11.858Z,19.40
2018-07-04T23:31:58.261Z,19.40
2018-07-04T23:34:44.863Z,19.30
2018-07-04T23:37:31.398Z,19.30
2018-07-04T23:40:17.867Z,19.20
2018-07-04T23:43:04.199Z,19.20
2018-07-04T23:45:50.666Z,19.10
2018-07-04T23:48:37.082Z,19.00
2018-07-04T23:51:23.646Z,19.00
2018-07-04T23:54:10.191Z,19.00
2018-07-04T23:56:56.492Z,18.90
2018-07-04T23:59:42.924Z,18.80
